sensor_id;sensor_type;location;lat;lon;timestamp;P1;durP1;ratioP1;P2;durP2;ratioP2
71236;SDS011;58984;51.960;5.582;2022-12-15T00:02:44;29.17;;;19.20;;
71236;SDS011;58984;51.960;5.582;2022-12-15T00:05:28;29.90;;;18.73;;
71236;SDS011;58984;51.960;5.582;2022-12-15T00:08:12;31.73;;;18.48;;
71236;SDS011;58984;51.960;5.582;2022-12-15T00:10:56;26.33;;;18.75;;
71236;SDS011;58984;51.960;5.582;2022-12-15T00:13:40;31.40;;;19.42;;
71236;SDS011;58984;51.960;5.582;2022-12-15T00:16:24;25.63;;;19.42;;
71236;SDS011;58984;51.960;5.582;2022-12-15T00:19:08;28.65;;;17.95;;
71236;SDS011;58984;51.960;5.582;2022-12-15T00:21:52;29.90;;;19.00;;
71236;SDS011;58984;51.960;5.582;2022-12-15T00:24:36;25.38;;;18.83;;
71236;SDS011;58984;51.960;5.582;2022-12-15T00:27:20;27.23;;;17.88;;
71236;SDS011;58984;51.960;5.582;2022-12-15T00:30:05;33.58;;;19.55;;
71236;SDS011;58984;51.960;5.582;2022-12-15T00:32:49;30.75;;;19.48;;
71236;SDS011;58984;51.960;5.582;2022-12-15T00:35:33;31.98;;;19.30;;
71236;SDS011;58984;51.960;5.582;2022-12-15T00:38:18;32.33;;;19.45;;
71236;SDS011;58984;51.960;5.582;2022-12-15T00:41:02;32.10;;;19.58;;
71236;SDS011;58984;51.960;5.582;2022-12-15T00:43:28;30.70;;;19.00;;
71236;SDS011;58984;51.960;5.582;2022-12-15T00:45:55;31.05;;;19.42;;
71236;SDS011;58984;51.960;5.582;2022-12-15T00:48:40;30.10;;;19.67;;
71236;SDS011;58984;51.960;5.582;2022-12-15T00:51:06;31.80;;;20.50;;
71236;SDS011;58984;51.960;5.582;2022-12-15T00:53:32;32.28;;;20.52;;
71236;SDS011;58984;51.960;5.582;2022-12-15T00:56:16;29.35;;;18.48;;
71236;SDS011;58984;51.960;5.582;2022-12-15T00:59:00;30.73;;;20.05;;
71236;SDS011;58984;51.960;5.582;2022-12-15T01:01:44;31.83;;;20.23;;
71236;SDS011;58984;51.960;5.582;2022-12-15T01:04:29;26.40;;;18.98;;
71236;SDS011;58984;51.960;5.582;2022-12-15T01:07:13;31.05;;;19.27;;
71236;SDS011;58984;51.960;5.582;2022-12-15T01:09:57;35.78;;;21.10;;
71236;SDS011;58984;51.960;5.582;2022-12-15T01:12:41;35.65;;;21.35;;
71236;SDS011;58984;51.960;5.582;2022-12-15T01:15:25;31.63;;;18.98;;
71236;SDS011;58984;51.960;5.582;2022-12-15T01:18:10;29.40;;;19.30;;
71236;SDS011;58984;51.960;5.582;2022-12-15T01:21:03;24.00;;;18.77;;
71236;SDS011;58984;51.960;5.582;2022-12-15T01:23:32;28.73;;;19.10;;
71236;SDS011;58984;51.960;5.582;2022-12-15T01:25:59;34.00;;;19.95;;
71236;SDS011;58984;51.960;5.582;2022-12-15T01:28:24;28.45;;;19.58;;
71236;SDS011;58984;51.960;5.582;2022-12-15T01:30:50;33.25;;;21.27;;
71236;SDS011;58984;51.960;5.582;2022-12-15T01:33:16;35.83;;;19.33;;
71236;SDS011;58984;51.960;5.582;2022-12-15T01:35:43;28.65;;;18.95;;
71236;SDS011;58984;51.960;5.582;2022-12-15T01:38:09;33.70;;;19.40;;
71236;SDS011;58984;51.960;5.582;2022-12-15T01:40:35;31.95;;;18.70;;
71236;SDS011;58984;51.960;5.582;2022-12-15T01:43:11;30.25;;;20.73;;
71236;SDS011;58984;51.960;5.582;2022-12-15T01:48:22;34.13;;;20.25;;
71236;SDS011;58984;51.960;5.582;2022-12-15T01:53:34;31.15;;;19.30;;
71236;SDS011;58984;51.960;5.582;2022-12-15T01:56:05;31.02;;;18.58;;
71236;SDS011;58984;51.960;5.582;2022-12-15T01:58:33;31.05;;;20.83;;
71236;SDS011;58984;51.960;5.582;2022-12-15T02:01:00;32.95;;;20.17;;
71236;SDS011;58984;51.960;5.582;2022-12-15T02:03:26;31.38;;;18.67;;
71236;SDS011;58984;51.960;5.582;2022-12-15T02:05:53;27.00;;;18.55;;
71236;SDS011;58984;51.960;5.582;2022-12-15T02:08:19;30.20;;;19.25;;
71236;SDS011;58984;51.960;5.582;2022-12-15T02:10:53;32.72;;;20.08;;
71236;SDS011;58984;51.960;5.582;2022-12-15T02:13:39;32.40;;;19.00;;
71236;SDS011;58984;51.960;5.582;2022-12-15T02:16:18;28.10;;;18.27;;
71236;SDS011;58984;51.960;5.582;2022-12-15T02:19:13;33.55;;;18.83;;
71236;SDS011;58984;51.960;5.582;2022-12-15T02:22:00;35.60;;;18.77;;
71236;SDS011;58984;51.960;5.582;2022-12-15T02:27:27;31.17;;;18.80;;
71236;SDS011;58984;51.960;5.582;2022-12-15T02:33:00;32.15;;;18.17;;
71236;SDS011;58984;51.960;5.582;2022-12-15T02:38:31;33.40;;;19.80;;
71236;SDS011;58984;51.960;5.582;2022-12-15T02:41:02;26.42;;;17.83;;
71236;SDS011;58984;51.960;5.582;2022-12-15T02:43:32;31.98;;;18.27;;
71236;SDS011;58984;51.960;5.582;2022-12-15T02:46:20;31.17;;;18.42;;
71236;SDS011;58984;51.960;5.582;2022-12-15T02:54:57;29.88;;;18.27;;
71236;SDS011;58984;51.960;5.582;2022-12-15T03:00:20;30.77;;;18.50;;
71236;SDS011;58984;51.960;5.582;2022-12-15T03:02:47;27.63;;;17.00;;
71236;SDS011;58984;51.960;5.582;2022-12-15T03:05:18;26.60;;;17.70;;
71236;SDS011;58984;51.960;5.582;2022-12-15T03:07:47;24.42;;;17.13;;
71236;SDS011;58984;51.960;5.582;2022-12-15T03:10:14;30.00;;;16.65;;
71236;SDS011;58984;51.960;5.582;2022-12-15T03:12:40;23.10;;;16.92;;
71236;SDS011;58984;51.960;5.582;2022-12-15T03:15:06;27.70;;;17.63;;
71236;SDS011;58984;51.960;5.582;2022-12-15T03:17:32;31.67;;;17.55;;
71236;SDS011;58984;51.960;5.582;2022-12-15T03:19:57;27.50;;;17.60;;
71236;SDS011;58984;51.960;5.582;2022-12-15T03:22:23;28.90;;;17.83;;
71236;SDS011;58984;51.960;5.582;2022-12-15T03:24:48;27.90;;;17.38;;
71236;SDS011;58984;51.960;5.582;2022-12-15T03:27:14;31.55;;;17.00;;
71236;SDS011;58984;51.960;5.582;2022-12-15T03:29:39;22.73;;;16.63;;
71236;SDS011;58984;51.960;5.582;2022-12-15T03:32:05;30.60;;;18.05;;
71236;SDS011;58984;51.960;5.582;2022-12-15T03:34:31;27.45;;;16.83;;
71236;SDS011;58984;51.960;5.582;2022-12-15T03:36:56;30.63;;;17.90;;
71236;SDS011;58984;51.960;5.582;2022-12-15T03:39:22;35.83;;;17.10;;
71236;SDS011;58984;51.960;5.582;2022-12-15T03:41:47;27.48;;;17.05;;
71236;SDS011;58984;51.960;5.582;2022-12-15T03:44:13;28.63;;;17.55;;
71236;SDS011;58984;51.960;5.582;2022-12-15T03:46:38;24.35;;;16.55;;
71236;SDS011;58984;51.960;5.582;2022-12-15T03:49:04;25.85;;;17.17;;
71236;SDS011;58984;51.960;5.582;2022-12-15T03:51:30;32.65;;;18.42;;
71236;SDS011;58984;51.960;5.582;2022-12-15T03:53:55;34.15;;;18.50;;
71236;SDS011;58984;51.960;5.582;2022-12-15T03:56:22;29.20;;;17.85;;
71236;SDS011;58984;51.960;5.582;2022-12-15T03:58:48;25.38;;;17.17;;
71236;SDS011;58984;51.960;5.582;2022-12-15T04:03:53;28.10;;;17.45;;
71236;SDS011;58984;51.960;5.582;2022-12-15T04:06:19;29.40;;;18.75;;
71236;SDS011;58984;51.960;5.582;2022-12-15T04:08:45;29.35;;;17.88;;
71236;SDS011;58984;51.960;5.582;2022-12-15T04:11:10;29.20;;;18.13;;
71236;SDS011;58984;51.960;5.582;2022-12-15T04:13:36;25.50;;;18.48;;
71236;SDS011;58984;51.960;5.582;2022-12-15T04:16:01;22.85;;;17.58;;
71236;SDS011;58984;51.960;5.582;2022-12-15T04:18:28;28.80;;;17.95;;
71236;SDS011;58984;51.960;5.582;2022-12-15T04:20:53;24.65;;;16.73;;
71236;SDS011;58984;51.960;5.582;2022-12-15T04:23:19;26.17;;;18.25;;
71236;SDS011;58984;51.960;5.582;2022-12-15T04:25:45;25.83;;;17.60;;
71236;SDS011;58984;51.960;5.582;2022-12-15T04:28:29;33.78;;;19.25;;
71236;SDS011;58984;51.960;5.582;2022-12-15T04:31:24;32.60;;;17.77;;
71236;SDS011;58984;51.960;5.582;2022-12-15T04:34:11;23.13;;;16.77;;
71236;SDS011;58984;51.960;5.582;2022-12-15T04:36:58;24.70;;;17.88;;
71236;SDS011;58984;51.960;5.582;2022-12-15T04:39:44;27.98;;;17.63;;
71236;SDS011;58984;51.960;5.582;2022-12-15T04:42:31;25.65;;;17.42;;
71236;SDS011;58984;51.960;5.582;2022-12-15T04:45:17;33.83;;;18.33;;
71236;SDS011;58984;51.960;5.582;2022-12-15T04:48:03;25.38;;;16.27;;
71236;SDS011;58984;51.960;5.582;2022-12-15T04:50:48;25.55;;;16.77;;
71236;SDS011;58984;51.960;5.582;2022-12-15T04:53:32;28.58;;;17.52;;
71236;SDS011;58984;51.960;5.582;2022-12-15T04:56:16;30.27;;;17.95;;
71236;SDS011;58984;51.960;5.582;2022-12-15T04:59:01;27.63;;;17.95;;
71236;SDS011;58984;51.960;5.582;2022-12-15T05:01:45;25.77;;;17.10;;
71236;SDS011;58984;51.960;5.582;2022-12-15T05:04:30;29.13;;;17.98;;
71236;SDS011;58984;51.960;5.582;2022-12-15T05:07:14;22.65;;;16.98;;
71236;SDS011;58984;51.960;5.582;2022-12-15T05:09:58;31.52;;;17.77;;
71236;SDS011;58984;51.960;5.582;2022-12-15T05:12:42;24.23;;;17.48;;
71236;SDS011;58984;51.960;5.582;2022-12-15T05:15:27;29.50;;;18.10;;
71236;SDS011;58984;51.960;5.582;2022-12-15T05:18:11;28.42;;;18.42;;
71236;SDS011;58984;51.960;5.582;2022-12-15T05:20:56;26.38;;;17.63;;
71236;SDS011;58984;51.960;5.582;2022-12-15T05:23:41;26.67;;;18.45;;
71236;SDS011;58984;51.960;5.582;2022-12-15T05:26:25;32.03;;;18.08;;
71236;SDS011;58984;51.960;5.582;2022-12-15T05:29:09;30.80;;;18.00;;
71236;SDS011;58984;51.960;5.582;2022-12-15T05:31:53;31.30;;;18.70;;
71236;SDS011;58984;51.960;5.582;2022-12-15T05:34:23;27.02;;;18.50;;
71236;SDS011;58984;51.960;5.582;2022-12-15T05:36:51;29.88;;;19.17;;
71236;SDS011;58984;51.960;5.582;2022-12-15T05:39:17;31.20;;;19.90;;
71236;SDS011;58984;51.960;5.582;2022-12-15T05:41:44;29.67;;;19.27;;
71236;SDS011;58984;51.960;5.582;2022-12-15T05:44:10;34.08;;;18.90;;
71236;SDS011;58984;51.960;5.582;2022-12-15T05:46:36;29.05;;;18.13;;
71236;SDS011;58984;51.960;5.582;2022-12-15T05:49:05;26.67;;;18.63;;
71236;SDS011;58984;51.960;5.582;2022-12-15T05:51:32;33.97;;;18.13;;
71236;SDS011;58984;51.960;5.582;2022-12-15T05:54:01;34.85;;;19.08;;
71236;SDS011;58984;51.960;5.582;2022-12-15T05:56:27;28.48;;;19.25;;
71236;SDS011;58984;51.960;5.582;2022-12-15T05:58:54;29.85;;;18.95;;
71236;SDS011;58984;51.960;5.582;2022-12-15T06:01:23;29.77;;;19.95;;
71236;SDS011;58984;51.960;5.582;2022-12-15T06:03:49;31.85;;;19.00;;
71236;SDS011;58984;51.960;5.582;2022-12-15T06:06:15;38.30;;;19.88;;
71236;SDS011;58984;51.960;5.582;2022-12-15T06:08:41;36.05;;;20.80;;
71236;SDS011;58984;51.960;5.582;2022-12-15T06:11:09;35.72;;;20.33;;
71236;SDS011;58984;51.960;5.582;2022-12-15T06:13:36;38.42;;;21.45;;
71236;SDS011;58984;51.960;5.582;2022-12-15T06:16:03;33.00;;;21.38;;
71236;SDS011;58984;51.960;5.582;2022-12-15T06:18:33;29.00;;;20.75;;
71236;SDS011;58984;51.960;5.582;2022-12-15T06:21:04;36.58;;;20.50;;
71236;SDS011;58984;51.960;5.582;2022-12-15T06:23:31;30.75;;;19.15;;
71236;SDS011;58984;51.960;5.582;2022-12-15T06:25:57;34.70;;;19.92;;
71236;SDS011;58984;51.960;5.582;2022-12-15T06:28:26;32.90;;;20.48;;
71236;SDS011;58984;51.960;5.582;2022-12-15T06:31:00;30.70;;;20.05;;
71236;SDS011;58984;51.960;5.582;2022-12-15T06:33:28;32.47;;;21.30;;
71236;SDS011;58984;51.960;5.582;2022-12-15T06:35:54;33.38;;;19.85;;
71236;SDS011;58984;51.960;5.582;2022-12-15T06:38:48;35.00;;;22.63;;
71236;SDS011;58984;51.960;5.582;2022-12-15T06:41:15;37.95;;;21.48;;
71236;SDS011;58984;51.960;5.582;2022-12-15T06:43:42;34.50;;;21.63;;
71236;SDS011;58984;51.960;5.582;2022-12-15T06:46:13;35.97;;;23.25;;
71236;SDS011;58984;51.960;5.582;2022-12-15T06:48:38;35.80;;;21.77;;
71236;SDS011;58984;51.960;5.582;2022-12-15T06:51:06;33.65;;;21.45;;
71236;SDS011;58984;51.960;5.582;2022-12-15T06:53:35;28.65;;;21.52;;
71236;SDS011;58984;51.960;5.582;2022-12-15T06:56:02;32.05;;;22.67;;
71236;SDS011;58984;51.960;5.582;2022-12-15T06:58:30;35.53;;;21.55;;
71236;SDS011;58984;51.960;5.582;2022-12-15T07:00:56;36.17;;;23.10;;
71236;SDS011;58984;51.960;5.582;2022-12-15T07:03:22;31.95;;;21.92;;
71236;SDS011;58984;51.960;5.582;2022-12-15T07:05:48;36.67;;;22.23;;
71236;SDS011;58984;51.960;5.582;2022-12-15T07:08:26;39.28;;;22.85;;
71236;SDS011;58984;51.960;5.582;2022-12-15T07:10:51;37.35;;;21.63;;
71236;SDS011;58984;51.960;5.582;2022-12-15T07:13:17;38.22;;;23.67;;
71236;SDS011;58984;51.960;5.582;2022-12-15T07:15:42;32.95;;;21.90;;
71236;SDS011;58984;51.960;5.582;2022-12-15T07:18:09;41.85;;;24.25;;
71236;SDS011;58984;51.960;5.582;2022-12-15T07:20:34;40.17;;;24.75;;
71236;SDS011;58984;51.960;5.582;2022-12-15T07:23:00;35.53;;;23.50;;
71236;SDS011;58984;51.960;5.582;2022-12-15T07:25:31;44.03;;;24.37;;
71236;SDS011;58984;51.960;5.582;2022-12-15T07:27:57;39.22;;;22.92;;
71236;SDS011;58984;51.960;5.582;2022-12-15T07:30:23;39.95;;;22.70;;
71236;SDS011;58984;51.960;5.582;2022-12-15T07:32:48;33.08;;;22.88;;
71236;SDS011;58984;51.960;5.582;2022-12-15T07:35:14;38.75;;;22.02;;
71236;SDS011;58984;51.960;5.582;2022-12-15T07:37:40;38.60;;;23.30;;
71236;SDS011;58984;51.960;5.582;2022-12-15T07:40:05;40.33;;;22.80;;
71236;SDS011;58984;51.960;5.582;2022-12-15T07:42:32;39.78;;;24.35;;
71236;SDS011;58984;51.960;5.582;2022-12-15T07:44:57;45.35;;;23.92;;
71236;SDS011;58984;51.960;5.582;2022-12-15T07:47:23;36.35;;;23.83;;
71236;SDS011;58984;51.960;5.582;2022-12-15T07:49:49;35.47;;;23.83;;
71236;SDS011;58984;51.960;5.582;2022-12-15T07:52:14;38.83;;;24.13;;
71236;SDS011;58984;51.960;5.582;2022-12-15T07:54:40;34.63;;;23.65;;
71236;SDS011;58984;51.960;5.582;2022-12-15T07:57:06;46.78;;;24.00;;
71236;SDS011;58984;51.960;5.582;2022-12-15T07:59:35;33.63;;;23.20;;
71236;SDS011;58984;51.960;5.582;2022-12-15T08:02:00;43.45;;;22.98;;
71236;SDS011;58984;51.960;5.582;2022-12-15T08:04:28;38.65;;;23.40;;
71236;SDS011;58984;51.960;5.582;2022-12-15T08:06:55;39.88;;;23.63;;
71236;SDS011;58984;51.960;5.582;2022-12-15T08:09:21;42.42;;;24.90;;
71236;SDS011;58984;51.960;5.582;2022-12-15T08:11:47;42.75;;;24.02;;
71236;SDS011;58984;51.960;5.582;2022-12-15T08:14:12;40.88;;;24.83;;
71236;SDS011;58984;51.960;5.582;2022-12-15T08:16:39;47.08;;;26.85;;
71236;SDS011;58984;51.960;5.582;2022-12-15T08:19:05;41.33;;;26.17;;
71236;SDS011;58984;51.960;5.582;2022-12-15T08:21:31;40.67;;;25.88;;
71236;SDS011;58984;51.960;5.582;2022-12-15T08:23:57;38.05;;;23.88;;
71236;SDS011;58984;51.960;5.582;2022-12-15T08:26:24;37.90;;;25.10;;
71236;SDS011;58984;51.960;5.582;2022-12-15T08:28:51;45.60;;;25.90;;
71236;SDS011;58984;51.960;5.582;2022-12-15T08:31:18;41.22;;;24.25;;
71236;SDS011;58984;51.960;5.582;2022-12-15T08:33:44;41.33;;;25.27;;
71236;SDS011;58984;51.960;5.582;2022-12-15T08:36:11;39.42;;;23.83;;
71236;SDS011;58984;51.960;5.582;2022-12-15T08:38:38;33.83;;;24.20;;
71236;SDS011;58984;51.960;5.582;2022-12-15T08:41:08;38.95;;;24.45;;
71236;SDS011;58984;51.960;5.582;2022-12-15T08:43:39;45.30;;;25.85;;
71236;SDS011;58984;51.960;5.582;2022-12-15T08:46:06;46.30;;;25.83;;
71236;SDS011;58984;51.960;5.582;2022-12-15T08:48:32;47.15;;;25.02;;
71236;SDS011;58984;51.960;5.582;2022-12-15T08:50:59;44.75;;;24.75;;
71236;SDS011;58984;51.960;5.582;2022-12-15T08:53:25;38.78;;;24.08;;
71236;SDS011;58984;51.960;5.582;2022-12-15T08:55:51;35.78;;;24.30;;
71236;SDS011;58984;51.960;5.582;2022-12-15T08:58:17;40.35;;;24.67;;
71236;SDS011;58984;51.960;5.582;2022-12-15T09:00:43;41.05;;;25.02;;
71236;SDS011;58984;51.960;5.582;2022-12-15T09:03:09;37.03;;;24.77;;
71236;SDS011;58984;51.960;5.582;2022-12-15T09:05:35;39.03;;;25.17;;
71236;SDS011;58984;51.960;5.582;2022-12-15T09:08:01;39.90;;;25.15;;
71236;SDS011;58984;51.960;5.582;2022-12-15T09:10:27;43.47;;;25.00;;
71236;SDS011;58984;51.960;5.582;2022-12-15T09:12:53;42.22;;;26.02;;
71236;SDS011;58984;51.960;5.582;2022-12-15T09:15:18;46.17;;;25.23;;
71236;SDS011;58984;51.960;5.582;2022-12-15T09:17:44;43.85;;;24.88;;
71236;SDS011;58984;51.960;5.582;2022-12-15T09:20:11;41.05;;;25.67;;
71236;SDS011;58984;51.960;5.582;2022-12-15T09:22:36;44.80;;;26.05;;
71236;SDS011;58984;51.960;5.582;2022-12-15T09:25:02;44.53;;;25.52;;
71236;SDS011;58984;51.960;5.582;2022-12-15T09:27:28;40.63;;;26.25;;
71236;SDS011;58984;51.960;5.582;2022-12-15T09:29:54;46.20;;;26.02;;
71236;SDS011;58984;51.960;5.582;2022-12-15T09:32:21;41.80;;;26.35;;
71236;SDS011;58984;51.960;5.582;2022-12-15T09:34:47;49.53;;;28.05;;
71236;SDS011;58984;51.960;5.582;2022-12-15T09:37:14;51.40;;;28.38;;
71236;SDS011;58984;51.960;5.582;2022-12-15T09:39:39;41.35;;;26.85;;
71236;SDS011;58984;51.960;5.582;2022-12-15T09:42:15;46.22;;;26.40;;
71236;SDS011;58984;51.960;5.582;2022-12-15T09:44:56;44.88;;;28.77;;
71236;SDS011;58984;51.960;5.582;2022-12-15T09:47:29;41.67;;;27.67;;
71236;SDS011;58984;51.960;5.582;2022-12-15T09:50:15;47.35;;;27.48;;
71236;SDS011;58984;51.960;5.582;2022-12-15T09:52:49;46.63;;;28.85;;
71236;SDS011;58984;51.960;5.582;2022-12-15T09:55:21;48.63;;;30.42;;
71236;SDS011;58984;51.960;5.582;2022-12-15T09:57:53;43.88;;;28.63;;
71236;SDS011;58984;51.960;5.582;2022-12-15T10:02:50;51.45;;;28.95;;
71236;SDS011;58984;51.960;5.582;2022-12-15T10:08:16;46.15;;;31.90;;
71236;SDS011;58984;51.960;5.582;2022-12-15T10:10:46;49.53;;;29.58;;
71236;SDS011;58984;51.960;5.582;2022-12-15T10:13:16;50.05;;;28.92;;
71236;SDS011;58984;51.960;5.582;2022-12-15T10:15:49;51.80;;;28.55;;
71236;SDS011;58984;51.960;5.582;2022-12-15T10:18:22;49.42;;;30.35;;
71236;SDS011;58984;51.960;5.582;2022-12-15T10:23:20;44.38;;;29.67;;
71236;SDS011;58984;51.960;5.582;2022-12-15T10:25:46;43.03;;;29.45;;
71236;SDS011;58984;51.960;5.582;2022-12-15T10:28:26;44.63;;;30.75;;
71236;SDS011;58984;51.960;5.582;2022-12-15T10:31:15;41.92;;;29.38;;
71236;SDS011;58984;51.960;5.582;2022-12-15T10:33:49;48.58;;;30.15;;
71236;SDS011;58984;51.960;5.582;2022-12-15T10:36:21;57.28;;;33.00;;
71236;SDS011;58984;51.960;5.582;2022-12-15T10:38:47;53.13;;;32.10;;
71236;SDS011;58984;51.960;5.582;2022-12-15T10:41:13;54.08;;;31.02;;
71236;SDS011;58984;51.960;5.582;2022-12-15T10:43:42;50.67;;;32.78;;
71236;SDS011;58984;51.960;5.582;2022-12-15T10:46:17;46.97;;;31.73;;
71236;SDS011;58984;51.960;5.582;2022-12-15T10:48:48;53.35;;;30.80;;
71236;SDS011;58984;51.960;5.582;2022-12-15T10:53:46;50.55;;;30.38;;
71236;SDS011;58984;51.960;5.582;2022-12-15T10:56:34;43.22;;;29.17;;
71236;SDS011;58984;51.960;5.582;2022-12-15T11:01:47;46.00;;;29.92;;
71236;SDS011;58984;51.960;5.582;2022-12-15T11:04:24;46.85;;;30.20;;
71236;SDS011;58984;51.960;5.582;2022-12-15T11:06:57;45.03;;;29.25;;
71236;SDS011;58984;51.960;5.582;2022-12-15T11:09:31;39.60;;;26.88;;
71236;SDS011;58984;51.960;5.582;2022-12-15T11:11:58;44.10;;;27.55;;
71236;SDS011;58984;51.960;5.582;2022-12-15T11:14:46;46.40;;;28.90;;
71236;SDS011;58984;51.960;5.582;2022-12-15T11:17:18;44.88;;;28.60;;
71236;SDS011;58984;51.960;5.582;2022-12-15T11:27:56;44.47;;;27.83;;
71236;SDS011;58984;51.960;5.582;2022-12-15T11:30:28;41.63;;;27.60;;
71236;SDS011;58984;51.960;5.582;2022-12-15T11:32:59;40.88;;;27.10;;
71236;SDS011;58984;51.960;5.582;2022-12-15T11:35:48;41.25;;;26.63;;
71236;SDS011;58984;51.960;5.582;2022-12-15T11:38:27;38.03;;;27.38;;
71236;SDS011;58984;51.960;5.582;2022-12-15T11:41:02;45.45;;;28.40;;
71236;SDS011;58984;51.960;5.582;2022-12-15T11:46:40;39.50;;;27.65;;
71236;SDS011;58984;51.960;5.582;2022-12-15T11:49:13;44.53;;;27.63;;
71236;SDS011;58984;51.960;5.582;2022-12-15T11:52:11;43.55;;;28.35;;
71236;SDS011;58984;51.960;5.582;2022-12-15T11:54:54;46.10;;;30.35;;
71236;SDS011;58984;51.960;5.582;2022-12-15T11:57:46;46.67;;;27.40;;
71236;SDS011;58984;51.960;5.582;2022-12-15T12:00:35;42.30;;;28.08;;
71236;SDS011;58984;51.960;5.582;2022-12-15T12:03:13;39.28;;;27.50;;
71236;SDS011;58984;51.960;5.582;2022-12-15T12:05:58;45.40;;;29.35;;
71236;SDS011;58984;51.960;5.582;2022-12-15T12:09:14;48.05;;;29.95;;
71236;SDS011;58984;51.960;5.582;2022-12-15T12:11:43;47.00;;;30.20;;
71236;SDS011;58984;51.960;5.582;2022-12-15T12:14:21;46.17;;;31.58;;
71236;SDS011;58984;51.960;5.582;2022-12-15T12:17:07;45.65;;;30.52;;
71236;SDS011;58984;51.960;5.582;2022-12-15T12:19:47;46.03;;;30.75;;
71236;SDS011;58984;51.960;5.582;2022-12-15T12:22:27;50.20;;;32.60;;
71236;SDS011;58984;51.960;5.582;2022-12-15T12:25:09;49.13;;;32.30;;
71236;SDS011;58984;51.960;5.582;2022-12-15T12:30:18;47.03;;;31.45;;
71236;SDS011;58984;51.960;5.582;2022-12-15T12:38:05;53.55;;;32.92;;
71236;SDS011;58984;51.960;5.582;2022-12-15T12:43:05;50.55;;;31.55;;
71236;SDS011;58984;51.960;5.582;2022-12-15T12:45:41;56.92;;;31.77;;
71236;SDS011;58984;51.960;5.582;2022-12-15T12:53:55;52.70;;;30.73;;
71236;SDS011;58984;51.960;5.582;2022-12-15T12:56:55;46.88;;;29.95;;
71236;SDS011;58984;51.960;5.582;2022-12-15T13:01:55;49.05;;;30.75;;
71236;SDS011;58984;51.960;5.582;2022-12-15T13:04:40;48.80;;;31.00;;
71236;SDS011;58984;51.960;5.582;2022-12-15T13:07:27;50.92;;;31.50;;
71236;SDS011;58984;51.960;5.582;2022-12-15T13:15:02;50.83;;;28.77;;
71236;SDS011;58984;51.960;5.582;2022-12-15T13:17:37;45.85;;;28.73;;
71236;SDS011;58984;51.960;5.582;2022-12-15T13:22:50;43.35;;;30.15;;
71236;SDS011;58984;51.960;5.582;2022-12-15T13:27:51;54.17;;;31.00;;
71236;SDS011;58984;51.960;5.582;2022-12-15T13:30:21;47.55;;;29.98;;
71236;SDS011;58984;51.960;5.582;2022-12-15T13:32:50;43.80;;;31.15;;
71236;SDS011;58984;51.960;5.582;2022-12-15T13:35:37;46.28;;;29.75;;
71236;SDS011;58984;51.960;5.582;2022-12-15T13:38:07;51.03;;;32.10;;
71236;SDS011;58984;51.960;5.582;2022-12-15T13:40:49;54.45;;;32.03;;
71236;SDS011;58984;51.960;5.582;2022-12-15T13:45:52;46.25;;;32.40;;
71236;SDS011;58984;51.960;5.582;2022-12-15T13:51:09;53.75;;;31.60;;
71236;SDS011;58984;51.960;5.582;2022-12-15T13:53:48;51.38;;;33.08;;
71236;SDS011;58984;51.960;5.582;2022-12-15T14:01:50;53.95;;;31.40;;
71236;SDS011;58984;51.960;5.582;2022-12-15T14:04:17;48.08;;;32.17;;
71236;SDS011;58984;51.960;5.582;2022-12-15T14:06:48;56.40;;;32.65;;
71236;SDS011;58984;51.960;5.582;2022-12-15T14:09:15;50.25;;;31.58;;
71236;SDS011;58984;51.960;5.582;2022-12-15T14:11:45;47.10;;;31.95;;
71236;SDS011;58984;51.960;5.582;2022-12-15T14:14:19;46.90;;;29.98;;
71236;SDS011;58984;51.960;5.582;2022-12-15T14:16:54;47.45;;;29.75;;
71236;SDS011;58984;51.960;5.582;2022-12-15T14:19:23;45.55;;;30.52;;
71236;SDS011;58984;51.960;5.582;2022-12-15T14:21:50;45.90;;;30.83;;
71236;SDS011;58984;51.960;5.582;2022-12-15T14:24:21;47.97;;;31.13;;
71236;SDS011;58984;51.960;5.582;2022-12-15T14:26:50;47.75;;;29.60;;
71236;SDS011;58984;51.960;5.582;2022-12-15T14:29:16;46.67;;;31.10;;
71236;SDS011;58984;51.960;5.582;2022-12-15T14:31:43;54.15;;;30.90;;
71236;SDS011;58984;51.960;5.582;2022-12-15T14:34:18;51.92;;;31.85;;
71236;SDS011;58984;51.960;5.582;2022-12-15T14:36:48;53.28;;;31.88;;
71236;SDS011;58984;51.960;5.582;2022-12-15T14:39:25;53.80;;;31.35;;
71236;SDS011;58984;51.960;5.582;2022-12-15T14:41:58;46.75;;;30.13;;
71236;SDS011;58984;51.960;5.582;2022-12-15T14:44:36;49.38;;;32.30;;
71236;SDS011;58984;51.960;5.582;2022-12-15T14:47:04;53.92;;;32.72;;
71236;SDS011;58984;51.960;5.582;2022-12-15T14:49:35;48.50;;;31.88;;
71236;SDS011;58984;51.960;5.582;2022-12-15T14:52:04;52.85;;;33.38;;
71236;SDS011;58984;51.960;5.582;2022-12-15T14:57:20;48.75;;;31.73;;
71236;SDS011;58984;51.960;5.582;2022-12-15T15:00:14;49.85;;;30.95;;
71236;SDS011;58984;51.960;5.582;2022-12-15T15:05:58;48.22;;;33.10;;
71236;SDS011;58984;51.960;5.582;2022-12-15T15:11:42;65.10;;;33.72;;
71236;SDS011;58984;51.960;5.582;2022-12-15T15:13:54;52.35;;;33.08;;
71236;SDS011;58984;51.960;5.582;2022-12-15T15:16:22;53.88;;;34.42;;
71236;SDS011;58984;51.960;5.582;2022-12-15T15:18:48;65.68;;;35.08;;
71236;SDS011;58984;51.960;5.582;2022-12-15T15:21:20;57.50;;;34.42;;
71236;SDS011;58984;51.960;5.582;2022-12-15T15:26:34;53.10;;;34.20;;
71236;SDS011;58984;51.960;5.582;2022-12-15T15:29:01;54.80;;;34.67;;
71236;SDS011;58984;51.960;5.582;2022-12-15T15:31:28;54.97;;;36.30;;
71236;SDS011;58984;51.960;5.582;2022-12-15T15:33:58;62.13;;;37.17;;
71236;SDS011;58984;51.960;5.582;2022-12-15T15:36:34;58.13;;;37.25;;
71236;SDS011;58984;51.960;5.582;2022-12-15T15:39:02;64.20;;;37.80;;
71236;SDS011;58984;51.960;5.582;2022-12-15T15:41:34;57.95;;;36.80;;
71236;SDS011;58984;51.960;5.582;2022-12-15T15:44:05;59.10;;;35.08;;
71236;SDS011;58984;51.960;5.582;2022-12-15T15:46:41;59.22;;;37.65;;
71236;SDS011;58984;51.960;5.582;2022-12-15T15:49:13;60.85;;;35.58;;
71236;SDS011;58984;51.960;5.582;2022-12-15T15:51:41;54.83;;;35.67;;
71236;SDS011;58984;51.960;5.582;2022-12-15T15:54:09;57.70;;;35.70;;
71236;SDS011;58984;51.960;5.582;2022-12-15T15:56:38;53.45;;;34.70;;
71236;SDS011;58984;51.960;5.582;2022-12-15T15:59:12;58.50;;;35.03;;
71236;SDS011;58984;51.960;5.582;2022-12-15T16:01:40;56.58;;;35.80;;
71236;SDS011;58984;51.960;5.582;2022-12-15T16:04:06;55.50;;;37.17;;
71236;SDS011;58984;51.960;5.582;2022-12-15T16:06:32;56.13;;;37.88;;
71236;SDS011;58984;51.960;5.582;2022-12-15T16:08:58;60.35;;;38.95;;
71236;SDS011;58984;51.960;5.582;2022-12-15T16:11:24;56.63;;;38.00;;
71236;SDS011;58984;51.960;5.582;2022-12-15T16:13:52;61.22;;;41.30;;
71236;SDS011;58984;51.960;5.582;2022-12-15T16:16:19;58.58;;;40.20;;
71236;SDS011;58984;51.960;5.582;2022-12-15T16:18:47;61.92;;;39.95;;
71236;SDS011;58984;51.960;5.582;2022-12-15T16:21:13;60.28;;;40.10;;
71236;SDS011;58984;51.960;5.582;2022-12-15T16:23:41;52.83;;;39.22;;
71236;SDS011;58984;51.960;5.582;2022-12-15T16:26:11;60.83;;;37.70;;
71236;SDS011;58984;51.960;5.582;2022-12-15T16:28:43;56.95;;;37.55;;
71236;SDS011;58984;51.960;5.582;2022-12-15T16:31:12;55.53;;;38.58;;
71236;SDS011;58984;51.960;5.582;2022-12-15T16:33:40;58.38;;;38.10;;